sensor_id;sensor_type;location;lat;lon;timestamp;P1;durP1;ratioP1;P2;durP2;ratioP2
69511;SDS011;70777;52.034;4.644;2023-07-16T00:02:24;10.43;;;2.92;;
69511;SDS011;70777;52.034;4.644;2023-07-16T00:04:49;10.75;;;3.10;;
69511;SDS011;70777;52.034;4.644;2023-07-16T00:07:15;11.57;;;2.90;;
69511;SDS011;70777;52.034;4.644;2023-07-16T00:09:42;9.60;;;2.50;;
69511;SDS011;70777;52.034;4.644;2023-07-16T00:12:07;9.25;;;2.97;;
69511;SDS011;70777;52.034;4.644;2023-07-16T00:14:33;9.93;;;3.10;;
69511;SDS011;70777;52.034;4.644;2023-07-16T00:16:59;5.93;;;2.97;;
69511;SDS011;70777;52.034;4.644;2023-07-16T00:19:24;8.55;;;3.15;;
69511;SDS011;70777;52.034;4.644;2023-07-16T00:21:49;7.78;;;2.88;;
69511;SDS011;70777;52.034;4.644;2023-07-16T00:24:15;6.45;;;2.63;;
69511;SDS011;70777;52.034;4.644;2023-07-16T00:26:40;10.05;;;2.95;;
69511;SDS011;70777;52.034;4.644;2023-07-16T00:29:06;9.70;;;2.80;;
69511;SDS011;70777;52.034;4.644;2023-07-16T00:31:31;9.10;;;2.97;;
69511;SDS011;70777;52.034;4.644;2023-07-16T00:33:56;9.65;;;3.72;;
69511;SDS011;70777;52.034;4.644;2023-07-16T00:36:22;9.75;;;3.25;;
69511;SDS011;70777;52.034;4.644;2023-07-16T00:38:47;8.68;;;2.85;;
69511;SDS011;70777;52.034;4.644;2023-07-16T00:41:13;17.50;;;3.85;;
69511;SDS011;70777;52.034;4.644;2023-07-16T00:43:39;7.30;;;3.20;;
69511;SDS011;70777;52.034;4.644;2023-07-16T00:46:04;13.68;;;3.45;;
69511;SDS011;70777;52.034;4.644;2023-07-16T00:48:30;7.00;;;3.42;;
69511;SDS011;70777;52.034;4.644;2023-07-16T00:50:56;9.48;;;3.42;;
69511;SDS011;70777;52.034;4.644;2023-07-16T00:53:21;15.93;;;3.75;;
69511;SDS011;70777;52.034;4.644;2023-07-16T00:55:47;13.07;;;3.28;;
69511;SDS011;70777;52.034;4.644;2023-07-16T00:58:12;13.05;;;3.10;;
69511;SDS011;70777;52.034;4.644;2023-07-16T01:00:38;11.43;;;3.25;;
69511;SDS011;70777;52.034;4.644;2023-07-16T01:03:06;13.07;;;3.40;;
69511;SDS011;70777;52.034;4.644;2023-07-16T01:08:44;10.25;;;3.53;;
69511;SDS011;70777;52.034;4.644;2023-07-16T01:11:11;10.65;;;3.60;;
69511;SDS011;70777;52.034;4.644;2023-07-16T01:13:37;10.70;;;3.95;;
69511;SDS011;70777;52.034;4.644;2023-07-16T01:16:03;10.70;;;4.70;;
69511;SDS011;70777;52.034;4.644;2023-07-16T01:18:28;13.75;;;4.97;;
69511;SDS011;70777;52.034;4.644;2023-07-16T01:20:53;7.57;;;3.30;;
69511;SDS011;70777;52.034;4.644;2023-07-16T01:26:26;10.95;;;3.75;;
69511;SDS011;70777;52.034;4.644;2023-07-16T01:31:47;10.27;;;3.83;;
69511;SDS011;70777;52.034;4.644;2023-07-16T01:34:16;22.73;;;4.72;;
69511;SDS011;70777;52.034;4.644;2023-07-16T01:36:43;13.67;;;4.80;;
69511;SDS011;70777;52.034;4.644;2023-07-16T01:39:09;13.25;;;5.00;;
69511;SDS011;70777;52.034;4.644;2023-07-16T01:41:34;13.15;;;4.22;;
69511;SDS011;70777;52.034;4.644;2023-07-16T01:44:00;17.13;;;4.45;;
69511;SDS011;70777;52.034;4.644;2023-07-16T01:46:25;17.23;;;4.70;;
69511;SDS011;70777;52.034;4.644;2023-07-16T01:48:51;15.02;;;4.53;;
69511;SDS011;70777;52.034;4.644;2023-07-16T01:51:16;17.88;;;4.95;;
69511;SDS011;70777;52.034;4.644;2023-07-16T01:53:41;11.20;;;4.57;;
69511;SDS011;70777;52.034;4.644;2023-07-16T01:56:07;11.20;;;4.68;;
69511;SDS011;70777;52.034;4.644;2023-07-16T01:58:33;14.95;;;5.60;;
69511;SDS011;70777;52.034;4.644;2023-07-16T02:00:58;14.27;;;5.05;;
69511;SDS011;70777;52.034;4.644;2023-07-16T02:03:24;12.77;;;4.82;;
69511;SDS011;70777;52.034;4.644;2023-07-16T02:05:49;14.55;;;4.60;;
69511;SDS011;70777;52.034;4.644;2023-07-16T02:08:16;13.75;;;4.95;;
69511;SDS011;70777;52.034;4.644;2023-07-16T02:10:42;14.55;;;5.05;;
69511;SDS011;70777;52.034;4.644;2023-07-16T02:13:07;13.75;;;4.30;;
69511;SDS011;70777;52.034;4.644;2023-07-16T02:15:32;18.15;;;5.00;;
69511;SDS011;70777;52.034;4.644;2023-07-16T02:17:58;16.05;;;5.07;;
69511;SDS011;70777;52.034;4.644;2023-07-16T02:20:23;15.90;;;4.75;;
69511;SDS011;70777;52.034;4.644;2023-07-16T02:22:48;11.27;;;5.28;;
69511;SDS011;70777;52.034;4.644;2023-07-16T02:25:14;14.70;;;5.13;;
69511;SDS011;70777;52.034;4.644;2023-07-16T02:27:39;13.55;;;5.43;;
69511;SDS011;70777;52.034;4.644;2023-07-16T02:30:05;18.63;;;5.63;;
69511;SDS011;70777;52.034;4.644;2023-07-16T02:32:31;14.02;;;5.32;;
69511;SDS011;70777;52.034;4.644;2023-07-16T02:34:57;18.02;;;5.35;;
69511;SDS011;70777;52.034;4.644;2023-07-16T02:37:23;22.30;;;6.03;;
69511;SDS011;70777;52.034;4.644;2023-07-16T02:39:48;19.35;;;5.65;;
69511;SDS011;70777;52.034;4.644;2023-07-16T02:42:13;18.67;;;5.90;;
69511;SDS011;70777;52.034;4.644;2023-07-16T02:44:39;14.35;;;6.28;;
69511;SDS011;70777;52.034;4.644;2023-07-16T02:47:09;11.82;;;5.20;;
69511;SDS011;70777;52.034;4.644;2023-07-16T02:49:35;17.60;;;5.40;;
69511;SDS011;70777;52.034;4.644;2023-07-16T02:52:00;17.08;;;5.70;;
69511;SDS011;70777;52.034;4.644;2023-07-16T02:54:25;13.32;;;5.10;;
69511;SDS011;70777;52.034;4.644;2023-07-16T02:56:51;10.63;;;4.47;;
69511;SDS011;70777;52.034;4.644;2023-07-16T02:59:16;10.52;;;4.38;;
69511;SDS011;70777;52.034;4.644;2023-07-16T03:01:42;15.75;;;5.30;;
69511;SDS011;70777;52.034;4.644;2023-07-16T03:04:07;9.63;;;4.57;;
69511;SDS011;70777;52.034;4.644;2023-07-16T03:06:33;13.48;;;4.72;;
69511;SDS011;70777;52.034;4.644;2023-07-16T03:08:58;9.25;;;4.00;;
69511;SDS011;70777;52.034;4.644;2023-07-16T03:11:23;10.15;;;4.55;;
69511;SDS011;70777;52.034;4.644;2023-07-16T03:13:49;15.77;;;3.83;;
69511;SDS011;70777;52.034;4.644;2023-07-16T03:16:15;7.22;;;4.05;;
69511;SDS011;70777;52.034;4.644;2023-07-16T03:18:40;11.90;;;3.92;;
69511;SDS011;70777;52.034;4.644;2023-07-16T03:21:05;8.80;;;3.67;;
69511;SDS011;70777;52.034;4.644;2023-07-16T03:23:31;14.32;;;4.20;;
69511;SDS011;70777;52.034;4.644;2023-07-16T03:25:56;11.27;;;3.95;;
69511;SDS011;70777;52.034;4.644;2023-07-16T03:28:22;11.30;;;3.78;;
69511;SDS011;70777;52.034;4.644;2023-07-16T03:30:48;14.82;;;4.15;;
69511;SDS011;70777;52.034;4.644;2023-07-16T03:33:14;15.13;;;4.15;;
69511;SDS011;70777;52.034;4.644;2023-07-16T03:35:41;13.30;;;4.38;;
69511;SDS011;70777;52.034;4.644;2023-07-16T03:38:08;10.35;;;3.97;;
69511;SDS011;70777;52.034;4.644;2023-07-16T03:40:33;9.95;;;4.35;;
69511;SDS011;70777;52.034;4.644;2023-07-16T03:42:59;11.93;;;3.90;;
69511;SDS011;70777;52.034;4.644;2023-07-16T03:45:24;12.68;;;4.15;;
69511;SDS011;70777;52.034;4.644;2023-07-16T03:47:50;11.85;;;4.43;;
69511;SDS011;70777;52.034;4.644;2023-07-16T03:50:15;10.70;;;4.63;;
69511;SDS011;70777;52.034;4.644;2023-07-16T03:52:41;11.90;;;4.60;;
69511;SDS011;70777;52.034;4.644;2023-07-16T03:55:06;14.30;;;4.05;;
69511;SDS011;70777;52.034;4.644;2023-07-16T03:57:32;13.18;;;4.55;;
69511;SDS011;70777;52.034;4.644;2023-07-16T03:59:57;14.15;;;4.63;;
69511;SDS011;70777;52.034;4.644;2023-07-16T04:02:23;17.98;;;4.78;;
69511;SDS011;70777;52.034;4.644;2023-07-16T04:04:49;10.40;;;4.20;;
69511;SDS011;70777;52.034;4.644;2023-07-16T04:07:15;10.25;;;4.68;;
69511;SDS011;70777;52.034;4.644;2023-07-16T04:09:41;14.30;;;4.80;;
69511;SDS011;70777;52.034;4.644;2023-07-16T04:12:06;16.45;;;5.55;;
69511;SDS011;70777;52.034;4.644;2023-07-16T04:14:32;13.18;;;5.35;;
69511;SDS011;70777;52.034;4.644;2023-07-16T04:16:58;13.23;;;4.63;;
69511;SDS011;70777;52.034;4.644;2023-07-16T04:19:23;14.98;;;4.68;;
69511;SDS011;70777;52.034;4.644;2023-07-16T04:21:49;13.80;;;4.30;;
69511;SDS011;70777;52.034;4.644;2023-07-16T04:24:14;16.85;;;4.68;;
69511;SDS011;70777;52.034;4.644;2023-07-16T04:26:39;17.73;;;5.03;;
69511;SDS011;70777;52.034;4.644;2023-07-16T04:29:05;13.45;;;5.53;;
69511;SDS011;70777;52.034;4.644;2023-07-16T04:31:30;13.10;;;4.63;;
69511;SDS011;70777;52.034;4.644;2023-07-16T04:33:55;14.18;;;5.72;;
69511;SDS011;70777;52.034;4.644;2023-07-16T04:36:21;10.27;;;5.05;;
69511;SDS011;70777;52.034;4.644;2023-07-16T04:38:46;14.43;;;5.18;;
69511;SDS011;70777;52.034;4.644;2023-07-16T04:41:12;14.90;;;4.97;;
69511;SDS011;70777;52.034;4.644;2023-07-16T04:43:38;13.25;;;5.47;;
69511;SDS011;70777;52.034;4.644;2023-07-16T04:46:03;12.77;;;5.07;;
69511;SDS011;70777;52.034;4.644;2023-07-16T04:48:29;16.40;;;5.18;;
69511;SDS011;70777;52.034;4.644;2023-07-16T04:50:54;13.60;;;5.45;;
69511;SDS011;70777;52.034;4.644;2023-07-16T04:53:20;11.80;;;4.80;;
69511;SDS011;70777;52.034;4.644;2023-07-16T04:55:47;10.32;;;4.63;;
69511;SDS011;70777;52.034;4.644;2023-07-16T04:58:12;13.90;;;4.53;;
69511;SDS011;70777;52.034;4.644;2023-07-16T05:00:38;11.82;;;4.57;;
69511;SDS011;70777;52.034;4.644;2023-07-16T05:03:03;10.07;;;4.75;;
69511;SDS011;70777;52.034;4.644;2023-07-16T05:05:28;12.90;;;4.68;;
69511;SDS011;70777;52.034;4.644;2023-07-16T05:07:54;9.15;;;4.65;;
69511;SDS011;70777;52.034;4.644;2023-07-16T05:10:19;14.88;;;4.95;;
69511;SDS011;70777;52.034;4.644;2023-07-16T05:12:45;12.20;;;5.20;;
69511;SDS011;70777;52.034;4.644;2023-07-16T05:15:10;14.07;;;5.18;;
69511;SDS011;70777;52.034;4.644;2023-07-16T05:17:36;13.60;;;4.70;;
69511;SDS011;70777;52.034;4.644;2023-07-16T05:20:01;12.02;;;4.88;;
69511;SDS011;70777;52.034;4.644;2023-07-16T05:22:28;12.85;;;4.70;;
69511;SDS011;70777;52.034;4.644;2023-07-16T05:24:53;12.60;;;4.78;;
69511;SDS011;70777;52.034;4.644;2023-07-16T05:27:18;9.23;;;4.28;;
69511;SDS011;70777;52.034;4.644;2023-07-16T05:29:44;9.98;;;4.55;;
69511;SDS011;70777;52.034;4.644;2023-07-16T05:32:09;12.38;;;5.07;;
69511;SDS011;70777;52.034;4.644;2023-07-16T05:34:34;16.52;;;4.85;;
69511;SDS011;70777;52.034;4.644;2023-07-16T05:37:00;11.65;;;4.70;;
69511;SDS011;70777;52.034;4.644;2023-07-16T05:39:25;11.48;;;4.10;;
69511;SDS011;70777;52.034;4.644;2023-07-16T05:41:51;12.65;;;4.57;;
69511;SDS011;70777;52.034;4.644;2023-07-16T05:44:16;10.23;;;4.60;;
69511;SDS011;70777;52.034;4.644;2023-07-16T05:46:41;10.95;;;4.57;;
69511;SDS011;70777;52.034;4.644;2023-07-16T05:49:07;13.23;;;4.63;;
69511;SDS011;70777;52.034;4.644;2023-07-16T05:51:33;15.77;;;4.97;;
69511;SDS011;70777;52.034;4.644;2023-07-16T05:53:58;11.02;;;4.70;;
69511;SDS011;70777;52.034;4.644;2023-07-16T05:56:23;10.40;;;4.82;;
69511;SDS011;70777;52.034;4.644;2023-07-16T05:58:49;8.65;;;4.30;;
69511;SDS011;70777;52.034;4.644;2023-07-16T06:01:14;15.18;;;4.38;;
69511;SDS011;70777;52.034;4.644;2023-07-16T06:03:40;10.75;;;5.00;;
69511;SDS011;70777;52.034;4.644;2023-07-16T06:06:05;15.50;;;5.45;;
69511;SDS011;70777;52.034;4.644;2023-07-16T06:08:33;12.35;;;4.90;;
69511;SDS011;70777;52.034;4.644;2023-07-16T06:10:59;9.98;;;4.88;;
69511;SDS011;70777;52.034;4.644;2023-07-16T06:13:24;12.00;;;4.85;;
69511;SDS011;70777;52.034;4.644;2023-07-16T06:15:50;12.67;;;4.60;;
69511;SDS011;70777;52.034;4.644;2023-07-16T06:18:15;10.93;;;4.50;;
69511;SDS011;70777;52.034;4.644;2023-07-16T06:20:44;9.13;;;5.07;;
69511;SDS011;70777;52.034;4.644;2023-07-16T06:23:10;10.50;;;4.60;;
69511;SDS011;70777;52.034;4.644;2023-07-16T06:25:36;9.80;;;4.60;;
69511;SDS011;70777;52.034;4.644;2023-07-16T06:28:02;8.13;;;4.17;;
69511;SDS011;70777;52.034;4.644;2023-07-16T06:30:28;11.60;;;4.57;;
69511;SDS011;70777;52.034;4.644;2023-07-16T06:32:53;10.57;;;4.43;;
69511;SDS011;70777;52.034;4.644;2023-07-16T06:35:18;12.67;;;5.00;;
69511;SDS011;70777;52.034;4.644;2023-07-16T06:37:44;9.37;;;5.07;;
69511;SDS011;70777;52.034;4.644;2023-07-16T06:40:09;14.00;;;5.70;;
69511;SDS011;70777;52.034;4.644;2023-07-16T06:42:35;10.65;;;4.97;;
69511;SDS011;70777;52.034;4.644;2023-07-16T06:45:01;8.68;;;4.70;;
69511;SDS011;70777;52.034;4.644;2023-07-16T06:47:26;13.90;;;4.70;;
69511;SDS011;70777;52.034;4.644;2023-07-16T06:49:52;14.10;;;4.67;;
69511;SDS011;70777;52.034;4.644;2023-07-16T06:52:20;17.07;;;4.03;;
69511;SDS011;70777;52.034;4.644;2023-07-16T06:54:47;12.13;;;4.70;;
69511;SDS011;70777;52.034;4.644;2023-07-16T06:57:13;12.07;;;4.27;;
69511;SDS011;70777;52.034;4.644;2023-07-16T06:59:38;11.17;;;4.10;;
69511;SDS011;70777;52.034;4.644;2023-07-16T07:02:04;11.40;;;3.97;;
69511;SDS011;70777;52.034;4.644;2023-07-16T07:04:29;12.27;;;4.10;;
69511;SDS011;70777;52.034;4.644;2023-07-16T07:06:55;9.83;;;5.20;;
69511;SDS011;70777;52.034;4.644;2023-07-16T07:09:20;9.37;;;4.83;;
69511;SDS011;70777;52.034;4.644;2023-07-16T07:11:46;13.57;;;4.93;;
69511;SDS011;70777;52.034;4.644;2023-07-16T07:14:11;12.80;;;5.83;;
69511;SDS011;70777;52.034;4.644;2023-07-16T07:16:36;12.50;;;4.60;;
69511;SDS011;70777;52.034;4.644;2023-07-16T07:19:02;10.37;;;5.07;;
69511;SDS011;70777;52.034;4.644;2023-07-16T07:21:27;10.43;;;3.90;;
69511;SDS011;70777;52.034;4.644;2023-07-16T07:23:53;14.97;;;4.80;;
69511;SDS011;70777;52.034;4.644;2023-07-16T07:26:18;10.67;;;4.73;;
69511;SDS011;70777;52.034;4.644;2023-07-16T07:28:44;11.50;;;5.10;;
69511;SDS011;70777;52.034;4.644;2023-07-16T07:31:09;10.47;;;4.63;;
69511;SDS011;70777;52.034;4.644;2023-07-16T07:33:34;14.40;;;6.33;;
69511;SDS011;70777;52.034;4.644;2023-07-16T07:36:00;10.02;;;5.30;;
69511;SDS011;70777;52.034;4.644;2023-07-16T07:38:25;16.90;;;5.28;;
69511;SDS011;70777;52.034;4.644;2023-07-16T07:40:51;14.57;;;5.40;;
69511;SDS011;70777;52.034;4.644;2023-07-16T07:43:16;13.15;;;5.15;;
69511;SDS011;70777;52.034;4.644;2023-07-16T07:45:41;10.45;;;5.53;;
69511;SDS011;70777;52.034;4.644;2023-07-16T07:48:07;10.48;;;5.25;;
69511;SDS011;70777;52.034;4.644;2023-07-16T07:50:32;14.10;;;5.25;;
69511;SDS011;70777;52.034;4.644;2023-07-16T07:52:58;12.63;;;5.30;;
69511;SDS011;70777;52.034;4.644;2023-07-16T07:55:23;11.88;;;4.97;;
69511;SDS011;70777;52.034;4.644;2023-07-16T07:57:48;12.30;;;5.57;;
69511;SDS011;70777;52.034;4.644;2023-07-16T08:00:14;11.23;;;5.37;;
69511;SDS011;70777;52.034;4.644;2023-07-16T08:02:40;10.50;;;5.43;;
69511;SDS011;70777;52.034;4.644;2023-07-16T08:05:05;16.20;;;5.45;;
69511;SDS011;70777;52.034;4.644;2023-07-16T08:07:31;16.63;;;5.93;;
69511;SDS011;70777;52.034;4.644;2023-07-16T08:09:56;16.80;;;6.40;;
69511;SDS011;70777;52.034;4.644;2023-07-16T08:12:22;12.65;;;5.18;;
69511;SDS011;70777;52.034;4.644;2023-07-16T08:14:47;10.57;;;5.22;;
69511;SDS011;70777;52.034;4.644;2023-07-16T08:17:13;15.02;;;5.57;;
69511;SDS011;70777;52.034;4.644;2023-07-16T08:19:38;9.85;;;4.90;;
69511;SDS011;70777;52.034;4.644;2023-07-16T08:22:04;11.00;;;4.05;;
69511;SDS011;70777;52.034;4.644;2023-07-16T08:24:29;10.77;;;4.50;;
69511;SDS011;70777;52.034;4.644;2023-07-16T08:26:55;10.32;;;4.80;;
69511;SDS011;70777;52.034;4.644;2023-07-16T08:29:20;10.27;;;4.40;;
69511;SDS011;70777;52.034;4.644;2023-07-16T08:31:46;12.53;;;4.20;;
69511;SDS011;70777;52.034;4.644;2023-07-16T08:34:11;13.23;;;4.73;;
69511;SDS011;70777;52.034;4.644;2023-07-16T08:36:36;12.07;;;4.88;;
69511;SDS011;70777;52.034;4.644;2023-07-16T08:39:05;14.10;;;5.55;;
69511;SDS011;70777;52.034;4.644;2023-07-16T08:41:30;11.43;;;5.03;;
69511;SDS011;70777;52.034;4.644;2023-07-16T08:43:56;12.10;;;5.05;;
69511;SDS011;70777;52.034;4.644;2023-07-16T08:46:22;10.15;;;4.82;;
69511;SDS011;70777;52.034;4.644;2023-07-16T08:48:48;14.43;;;4.35;;
69511;SDS011;70777;52.034;4.644;2023-07-16T08:51:14;11.45;;;4.82;;
69511;SDS011;70777;52.034;4.644;2023-07-16T08:53:41;10.05;;;4.68;;
69511;SDS011;70777;52.034;4.644;2023-07-16T08:56:06;12.27;;;4.75;;
69511;SDS011;70777;52.034;4.644;2023-07-16T08:58:32;13.15;;;6.18;;
69511;SDS011;70777;52.034;4.644;2023-07-16T09:00:58;15.60;;;5.45;;
69511;SDS011;70777;52.034;4.644;2023-07-16T09:05:50;11.73;;;4.90;;
69511;SDS011;70777;52.034;4.644;2023-07-16T09:08:15;8.90;;;4.82;;
69511;SDS011;70777;52.034;4.644;2023-07-16T09:10:42;11.10;;;5.05;;
69511;SDS011;70777;52.034;4.644;2023-07-16T09:13:08;13.95;;;5.15;;
69511;SDS011;70777;52.034;4.644;2023-07-16T09:15:34;11.60;;;4.72;;
69511;SDS011;70777;52.034;4.644;2023-07-16T09:18:00;12.25;;;4.88;;
69511;SDS011;70777;52.034;4.644;2023-07-16T09:20:25;11.07;;;5.40;;
69511;SDS011;70777;52.034;4.644;2023-07-16T09:25:30;8.60;;;4.30;;
69511;SDS011;70777;52.034;4.644;2023-07-16T09:27:57;11.75;;;4.35;;
69511;SDS011;70777;52.034;4.644;2023-07-16T09:30:23;8.27;;;5.00;;
69511;SDS011;70777;52.034;4.644;2023-07-16T09:32:48;12.50;;;5.00;;
69511;SDS011;70777;52.034;4.644;2023-07-16T09:35:14;8.43;;;4.57;;
69511;SDS011;70777;52.034;4.644;2023-07-16T09:37:41;13.32;;;5.72;;
69511;SDS011;70777;52.034;4.644;2023-07-16T09:40:08;13.70;;;5.73;;
69511;SDS011;70777;52.034;4.644;2023-07-16T09:42:40;13.07;;;5.03;;
69511;SDS011;70777;52.034;4.644;2023-07-16T09:45:06;12.43;;;4.28;;
69511;SDS011;70777;52.034;4.644;2023-07-16T09:47:35;9.55;;;3.88;;
69511;SDS011;70777;52.034;4.644;2023-07-16T09:50:04;8.77;;;3.70;;
69511;SDS011;70777;52.034;4.644;2023-07-16T09:52:30;13.27;;;4.97;;
69511;SDS011;70777;52.034;4.644;2023-07-16T09:54:57;7.45;;;3.88;;
69511;SDS011;70777;52.034;4.644;2023-07-16T09:57:27;12.25;;;4.65;;
69511;SDS011;70777;52.034;4.644;2023-07-16T09:59:55;10.30;;;5.57;;
69511;SDS011;70777;52.034;4.644;2023-07-16T10:02:21;12.80;;;4.88;;
69511;SDS011;70777;52.034;4.644;2023-07-16T10:04:47;10.00;;;4.90;;
69511;SDS011;70777;52.034;4.644;2023-07-16T10:07:22;11.77;;;5.20;;
69511;SDS011;70777;52.034;4.644;2023-07-16T10:12:19;11.23;;;4.07;;
69511;SDS011;70777;52.034;4.644;2023-07-16T10:14:46;9.48;;;4.50;;
69511;SDS011;70777;52.034;4.644;2023-07-16T10:17:18;12.20;;;4.50;;
69511;SDS011;70777;52.034;4.644;2023-07-16T10:19:55;10.63;;;4.65;;
69511;SDS011;70777;52.034;4.644;2023-07-16T10:22:33;11.23;;;4.80;;
69511;SDS011;70777;52.034;4.644;2023-07-16T10:27:34;7.28;;;3.25;;
69511;SDS011;70777;52.034;4.644;2023-07-16T10:30:00;7.50;;;3.20;;
69511;SDS011;70777;52.034;4.644;2023-07-16T10:32:30;5.75;;;3.08;;
69511;SDS011;70777;52.034;4.644;2023-07-16T10:34:57;12.98;;;3.80;;
69511;SDS011;70777;52.034;4.644;2023-07-16T10:37:23;7.97;;;3.13;;
69511;SDS011;70777;52.034;4.644;2023-07-16T10:39:50;10.77;;;3.67;;
69511;SDS011;70777;52.034;4.644;2023-07-16T10:42:16;9.70;;;3.72;;
69511;SDS011;70777;52.034;4.644;2023-07-16T10:44:43;8.53;;;3.27;;
69511;SDS011;70777;52.034;4.644;2023-07-16T10:47:09;20.67;;;3.33;;
69511;SDS011;70777;52.034;4.644;2023-07-16T10:49:42;6.38;;;2.45;;
69511;SDS011;70777;52.034;4.644;2023-07-16T10:52:08;5.47;;;2.67;;
69511;SDS011;70777;52.034;4.644;2023-07-16T10:54:33;9.63;;;2.47;;
69511;SDS011;70777;52.034;4.644;2023-07-16T10:56:59;5.67;;;2.73;;
69511;SDS011;70777;52.034;4.644;2023-07-16T10:59:24;7.27;;;3.13;;
69511;SDS011;70777;52.034;4.644;2023-07-16T11:01:49;9.80;;;3.63;;
69511;SDS011;70777;52.034;4.644;2023-07-16T11:04:15;7.80;;;2.60;;
69511;SDS011;70777;52.034;4.644;2023-07-16T11:06:40;9.40;;;2.57;;
69511;SDS011;70777;52.034;4.644;2023-07-16T11:09:06;9.73;;;3.07;;
69511;SDS011;70777;52.034;4.644;2023-07-16T11:11:34;8.60;;;3.00;;
69511;SDS011;70777;52.034;4.644;2023-07-16T11:14:03;9.50;;;3.10;;
69511;SDS011;70777;52.034;4.644;2023-07-16T11:16:33;9.70;;;2.88;;
69511;SDS011;70777;52.034;4.644;2023-07-16T11:19:01;6.35;;;2.50;;
69511;SDS011;70777;52.034;4.644;2023-07-16T11:21:30;6.80;;;2.65;;
69511;SDS011;70777;52.034;4.644;2023-07-16T11:23:56;7.90;;;2.20;;
69511;SDS011;70777;52.034;4.644;2023-07-16T11:26:32;9.10;;;2.15;;
69511;SDS011;70777;52.034;4.644;2023-07-16T11:28:58;6.23;;;2.10;;
69511;SDS011;70777;52.034;4.644;2023-07-16T11:31:23;11.57;;;2.33;;
69511;SDS011;70777;52.034;4.644;2023-07-16T11:33:49;9.83;;;2.80;;
69511;SDS011;70777;52.034;4.644;2023-07-16T11:36:16;6.00;;;2.13;;
69511;SDS011;70777;52.034;4.644;2023-07-16T11:38:41;11.80;;;2.60;;
69511;SDS011;70777;52.034;4.644;2023-07-16T11:41:07;5.87;;;2.30;;
69511;SDS011;70777;52.034;4.644;2023-07-16T11:43:35;7.60;;;2.40;;
69511;SDS011;70777;52.034;4.644;2023-07-16T11:46:02;6.15;;;2.15;;
69511;SDS011;70777;52.034;4.644;2023-07-16T11:48:28;8.43;;;2.40;;
69511;SDS011;70777;52.034;4.644;2023-07-16T11:50:53;6.53;;;2.30;;
69511;SDS011;70777;52.034;4.644;2023-07-16T11:53:19;7.57;;;2.13;;
69511;SDS011;70777;52.034;4.644;2023-07-16T11:55:44;5.80;;;1.83;;
69511;SDS011;70777;52.034;4.644;2023-07-16T11:58:09;5.50;;;2.00;;
69511;SDS011;70777;52.034;4.644;2023-07-16T12:00:35;6.70;;;2.23;;
69511;SDS011;70777;52.034;4.644;2023-07-16T12:03:00;5.03;;;1.90;;
69511;SDS011;70777;52.034;4.644;2023-07-16T12:05:26;12.73;;;2.20;;
69511;SDS011;70777;52.034;4.644;2023-07-16T12:10:18;6.83;;;1.97;;
69511;SDS011;70777;52.034;4.644;2023-07-16T12:12:43;4.97;;;1.67;;
69511;SDS011;70777;52.034;4.644;2023-07-16T12:15:09;7.10;;;1.97;;
69511;SDS011;70777;52.034;4.644;2023-07-16T12:17:35;10.03;;;1.77;;
69511;SDS011;70777;52.034;4.644;2023-07-16T12:20:01;6.93;;;1.70;;
69511;SDS011;70777;52.034;4.644;2023-07-16T12:22:26;7.05;;;1.65;;
69511;SDS011;70777;52.034;4.644;2023-07-16T12:24:52;10.63;;;2.13;;
69511;SDS011;70777;52.034;4.644;2023-07-16T12:27:18;7.80;;;1.70;;
69511;SDS011;70777;52.034;4.644;2023-07-16T12:29:43;6.43;;;1.77;;
69511;SDS011;70777;52.034;4.644;2023-07-16T12:32:09;5.90;;;1.90;;
69511;SDS011;70777;52.034;4.644;2023-07-16T12:34:35;11.40;;;1.93;;
69511;SDS011;70777;52.034;4.644;2023-07-16T12:37:00;7.47;;;1.87;;
69511;SDS011;70777;52.034;4.644;2023-07-16T12:39:26;9.07;;;1.80;;
69511;SDS011;70777;52.034;4.644;2023-07-16T12:41:51;11.50;;;1.53;;
69511;SDS011;70777;52.034;4.644;2023-07-16T12:44:17;8.20;;;1.80;;
69511;SDS011;70777;52.034;4.644;2023-07-16T12:46:42;8.43;;;1.93;;
69511;SDS011;70777;52.034;4.644;2023-07-16T12:49:07;10.37;;;2.30;;
69511;SDS011;70777;52.034;4.644;2023-07-16T12:51:33;9.13;;;2.10;;
69511;SDS011;70777;52.034;4.644;2023-07-16T12:53:58;10.63;;;2.50;;
69511;SDS011;70777;52.034;4.644;2023-07-16T12:56:25;5.50;;;1.42;;
69511;SDS011;70777;52.034;4.644;2023-07-16T12:58:51;8.87;;;1.93;;
69511;SDS011;70777;52.034;4.644;2023-07-16T13:01:17;12.57;;;2.63;;
69511;SDS011;70777;52.034;4.644;2023-07-16T13:03:43;8.33;;;2.27;;
69511;SDS011;70777;52.034;4.644;2023-07-16T13:06:08;12.87;;;2.53;;
69511;SDS011;70777;52.034;4.644;2023-07-16T13:08:34;14.73;;;1.93;;
69511;SDS011;70777;52.034;4.644;2023-07-16T13:11:00;6.90;;;2.10;;
69511;SDS011;70777;52.034;4.644;2023-07-16T13:13:26;15.10;;;2.97;;
69511;SDS011;70777;52.034;4.644;2023-07-16T13:15:51;8.73;;;2.03;;
69511;SDS011;70777;52.034;4.644;2023-07-16T13:18:16;9.33;;;1.90;;
69511;SDS011;70777;52.034;4.644;2023-07-16T13:20:43;9.82;;;2.30;;
69511;SDS011;70777;52.034;4.644;2023-07-16T13:23:08;11.13;;;2.37;;
69511;SDS011;70777;52.034;4.644;2023-07-16T13:25:34;11.67;;;2.43;;
69511;SDS011;70777;52.034;4.644;2023-07-16T13:28:00;13.25;;;2.30;;
69511;SDS011;70777;52.034;4.644;2023-07-16T13:30:27;6.28;;;1.80;;
69511;SDS011;70777;52.034;4.644;2023-07-16T13:32:52;9.07;;;2.00;;
69511;SDS011;70777;52.034;4.644;2023-07-16T13:35:21;6.47;;;1.77;;
69511;SDS011;70777;52.034;4.644;2023-07-16T13:37:47;9.20;;;1.85;;
69511;SDS011;70777;52.034;4.644;2023-07-16T13:40:12;9.60;;;2.03;;
69511;SDS011;70777;52.034;4.644;2023-07-16T13:42:37;10.57;;;2.20;;
69511;SDS011;70777;52.034;4.644;2023-07-16T13:45:04;8.77;;;2.03;;
69511;SDS011;70777;52.034;4.644;2023-07-16T13:47:30;7.22;;;1.55;;
69511;SDS011;70777;52.034;4.644;2023-07-16T13:49:56;8.13;;;2.17;;
69511;SDS011;70777;52.034;4.644;2023-07-16T13:52:21;10.97;;;2.43;;
69511;SDS011;70777;52.034;4.644;2023-07-16T13:54:47;8.10;;;1.80;;
69511;SDS011;70777;52.034;4.644;2023-07-16T13:57:12;10.50;;;2.00;;
69511;SDS011;70777;52.034;4.644;2023-07-16T13:59:37;7.07;;;2.20;;
69511;SDS011;70777;52.034;4.644;2023-07-16T14:02:03;7.40;;;2.20;;
69511;SDS011;70777;52.034;4.644;2023-07-16T14:04:29;10.03;;;2.17;;
69511;SDS011;70777;52.034;4.644;2023-07-16T14:06:54;9.43;;;2.30;;
69511;SDS011;70777;52.034;4.644;2023-07-16T14:09:21;10.82;;;2.33;;
69511;SDS011;70777;52.034;4.644;2023-07-16T14:11:47;8.05;;;1.85;;
69511;SDS011;70777;52.034;4.644;2023-07-16T14:14:16;8.88;;;2.05;;
69511;SDS011;70777;52.034;4.644;2023-07-16T14:16:42;13.10;;;2.83;;
69511;SDS011;70777;52.034;4.644;2023-07-16T14:19:08;8.80;;;2.10;;
69511;SDS011;70777;52.034;4.644;2023-07-16T14:21:34;9.50;;;2.28;;
69511;SDS011;70777;52.034;4.644;2023-07-16T14:24:00;8.30;;;2.47;;
69511;SDS011;70777;52.034;4.644;2023-07-16T14:26:25;15.30;;;2.70;;
69511;SDS011;70777;52.034;4.644;2023-07-16T14:28:51;6.43;;;2.20;;
69511;SDS011;70777;52.034;4.644;2023-07-16T14:31:16;10.20;;;2.00;;
69511;SDS011;70777;52.034;4.644;2023-07-16T14:33:42;14.53;;;2.53;;
69511;SDS011;70777;52.034;4.644;2023-07-16T14:36:07;15.20;;;2.87;;
69511;SDS011;70777;52.034;4.644;2023-07-16T14:38:32;11.57;;;2.07;;
69511;SDS011;70777;52.034;4.644;2023-07-16T14:40:58;8.10;;;2.30;;
69511;SDS011;70777;52.034;4.644;2023-07-16T14:43:25;16.20;;;3.10;;
69511;SDS011;70777;52.034;4.644;2023-07-16T14:45:50;14.13;;;2.60;;
69511;SDS011;70777;52.034;4.644;2023-07-16T14:48:15;10.80;;;2.57;;
69511;SDS011;70777;52.034;4.644;2023-07-16T14:50:41;8.00;;;2.00;;
69511;SDS011;70777;52.034;4.644;2023-07-16T14:53:06;13.53;;;2.87;;